Česky Dansk Deutsch English Español Suomi Français Magyar Italiano Nederlands norsk Polski Português svenska Türkçe

 

Het Weer

Monte Scuro (Italië)

05:55, 13 augustus 2016 (GMT)

NWNNE
WE
SWSSE
Home            
Monte Scuro Calopezzati Lamezia Terme Bonifati Crotone Latronico Capo Palinuro Marina Di Ginosa Messina Potenza Reggio Calabria Grottaglie Gioia Del Colle S. Maria Di Leuca Lecce Pontecagnano Air Force Base Brindisi Bari / Palese Macchie Trevico Capri Catania / Fontanarossa Napoli / Capodichino Catania / Sigonella

Om een weerknop op uw website of weblog te plaatsen, copieer onderstaande code en plak die in uw pagina. In het eerste vakje staat HTML-code, in het tweede vakje UBB-code.


Add to Google

Details

Wind speed:5 bf, 19 kn, 9.8 m/s, 21.9 miles/h, 35.2 km/h
Wind direction:N, 010°
Visibility:Greater than 10000 m, 10 km, 32800 ft, 6.2 miles
Clouds:CAVOC
Temperature:10°C, 50°F
Dew-point:6°C, 43°F
Atmospheric pressure:1023 hPa, 767.3 mmHg, 30.21 inHg, 1.010 atm
Relative humidity:76.2 %
METAR:LIBQ 130555Z 01019KT CAVOK 10/06 Q1023

Snelkoppelingen

Actuele weersinformatie van de hele wereld. Voeg locaties toe met het plus (+) symbool. Deze snelkoppelingen kunnen worden toegevoegd aan Google.

Lid van de Technetium groep

website free tracking
StatCounter NetStat W3C Validator

19-05-2022 05:04:06
astro.technetium.be money.technetium.be phote.technetium.be tafeltennistafel.technetium.be www.ligfiets.net